Terminal Aerodrome Forecast
Issued by NWS

Home | Current Version | Previous Version | Text Only | Print | Product List | Glossary On
Versions: 1 2 3 4 5 6 7 8 9 10 11 12 13 14 15 16 17 18 19 20 21 22 23 24 25 26 27 28 29 30 31 32 33 34 35 36 37 38 39 40 41 42 43 44 45 46 47
000
FTUS42 KGSP 222300
TAFHKY
TAF
KHKY 222334Z 2300/2324 00000KT P6SM SCT030 BKN045
      TEMPO 2300/2304 BKN030 OVC045
     FM230400 00000KT P6SM BKN030
     FM230700 00000KT 5SM BR BKN015
     FM231400 25003KT P6SM BKN024
     FM231700 24004KT P6SM BKN035 PROB30 2318/2324 4SM TSRA
      BKN025CB=

USA.gov is the U.S. government's official web portal to all federal, state and local government web resources and services.